Terminal Aerodrome Forecast
Issued by NWS

Home | Current Version | Previous Version | Text Only | Print | Product List | Glossary On
Versions: 1 2 3 4 5 6 7 8 9 10 11 12 13 14 15 16 17 18
000
FTUS43 KFGF 271700
TAFBJI
TAF
KBJI 271725Z 2718/2818 15007KT P6SM OVC008
     FM271900 15009KT P6SM OVC010
     FM280500 14007KT 6SM BR OVC008=

USA.gov is the U.S. government's official web portal to all federal, state and local government web resources and services.